.
WxDataArchive / Data Records for 2014-10-29
2014-10-28 October 2014 2014-10-30

Data Records for Wednesday, 29 October 2014

Time	Temp	Chill	HIndex	Humid	Dewpt	 Wind 	HiWind	WindDir	Rain 	Barom
-----	----	-----	------	-----	-----	------	------	-------	-----	-----
00:00	48.8	48.8	48.8	65	37.6	0	1	270	0.00	29.945 
00:05	48.8	48.8	48.8	65	37.6	0	1	270	0.00	29.945 
00:10	48.8	48.8	48.8	65	37.6	0	1	270	0.00	29.945 
00:15	48.8	48.8	48.8	64	37.2	0	0	---	0.00	29.946 
00:20	48.8	48.8	48.8	64	37.2	0	1	270	0.00	29.946 
00:25	48.8	48.8	48.8	64	37.2	0	1	270	0.00	29.946 
00:30	48.6	48.6	48.6	65	37.4	0	0	---	0.00	29.949 
00:35	48.5	48.5	48.5	64	36.9	0	1	270	0.00	29.949 
00:40	48.5	48.5	48.5	64	36.9	0	1	270	0.00	29.949 
00:45	48.3	48.3	48.3	65	37.1	0	0	---	0.00	29.944 
00:50	48.2	48.2	48.2	65	37.0	0	1	270	0.00	29.944 
00:55	48.0	48.0	48.0	65	36.8	0	1	270	0.00	29.944 
01:00	47.9	47.9	47.9	66	37.1	0	0	---	0.00	29.947 
01:05	47.9	47.9	47.9	65	36.7	0	1	270	0.00	29.947 
01:10	47.7	47.7	47.7	65	36.5	0	1	270	0.00	29.947 
01:15	47.7	47.7	47.7	65	36.5	0	1	270	0.00	29.951 
01:20	47.7	47.7	47.7	65	36.5	0	1	270	0.00	29.951 
01:25	47.7	47.7	47.7	65	36.5	0	1	270	0.00	29.951 
01:30	47.7	47.7	47.7	65	36.5	0	1	270	0.00	29.943 
01:35	47.7	47.7	47.7	65	36.5	0	1	270	0.00	29.943 
01:40	47.6	47.6	47.6	65	36.4	0	1	270	0.00	29.943 
01:45	47.6	47.6	47.6	65	36.4	0	1	270	0.00	29.951 
01:50	47.6	47.6	47.6	65	36.4	0	1	270	0.00	29.951 
01:55	47.6	47.6	47.6	65	36.4	0	1	270	0.00	29.951 
02:00	47.4	47.4	47.4	65	36.2	0	1	270	0.00	29.953 
02:05	47.4	47.4	47.4	65	36.2	0	1	270	0.00	29.953 
02:10	47.4	47.4	47.4	65	36.2	0	1	270	0.00	29.953 
02:15	47.4	47.4	47.4	65	36.2	0	0	---	0.00	29.955 
02:20	47.3	47.3	47.3	65	36.1	0	1	270	0.00	29.955 
02:25	47.3	47.3	47.3	65	36.1	0	1	270	0.00	29.955 
02:30	47.1	47.1	47.1	65	35.9	0	1	270	0.00	29.958 
02:35	47.0	47.0	47.0	65	35.9	0	0	---	0.00	29.958 
02:40	47.0	47.0	47.0	65	35.9	0	1	270	0.00	29.958 
02:45	47.0	47.0	47.0	65	35.9	0	1	270	0.00	29.957 
02:50	47.0	47.0	47.0	65	35.9	0	1	270	0.00	29.957 
02:55	46.8	46.8	46.8	65	35.7	0	1	270	0.00	29.957 
03:00	46.8	46.8	46.8	65	35.7	0	1	270	0.00	29.960 
03:05	46.7	46.7	46.7	66	36.0	0	1	270	0.00	29.960 
03:10	46.5	46.5	46.5	66	35.8	0	1	270	0.00	29.960 
03:15	46.5	46.5	46.5	66	35.8	0	1	270	0.00	29.963 
03:20	46.4	46.4	46.4	67	36.0	0	1	270	0.00	29.963 
03:25	46.2	46.2	46.2	67	35.9	0	1	270	0.00	29.963 
03:30	46.1	46.1	46.1	67	35.8	0	1	270	0.00	29.965 
03:35	45.8	45.8	45.8	68	35.8	0	1	270	0.00	29.965 
03:40	45.7	45.7	45.7	68	35.8	0	0	---	0.00	29.965 
03:45	45.5	45.5	45.5	68	35.6	0	1	270	0.00	29.961 
03:50	45.5	45.5	45.5	69	35.9	0	1	270	0.00	29.961 
03:55	45.5	45.5	45.5	69	35.9	0	1	270	0.00	29.961 
04:00	45.4	45.4	45.4	69	35.8	0	1	270	0.00	29.963 
04:05	45.4	45.4	45.4	69	35.8	0	1	270	0.00	29.963 
04:10	45.4	45.4	45.4	69	35.8	0	1	270	0.00	29.963 
04:15	45.2	45.2	45.2	69	35.6	0	0	---	0.00	29.958 
04:20	45.2	45.2	45.2	69	35.6	0	1	270	0.00	29.958 
04:25	45.1	45.1	45.1	69	35.5	0	1	270	0.00	29.958 
04:30	45.1	45.1	45.1	70	35.9	0	1	270	0.00	29.958 
04:35	44.9	44.9	44.9	70	35.7	0	1	270	0.00	29.958 
04:40	44.9	44.9	44.9	70	35.7	0	1	270	0.00	29.958 
04:45	44.8	44.8	44.8	70	35.6	0	1	270	0.00	29.956 
04:50	44.6	44.6	44.6	70	35.4	0	1	270	0.00	29.956 
04:55	44.6	44.6	44.6	71	35.8	0	1	270	0.00	29.956 
05:00	44.5	44.5	44.5	71	35.7	0	0	---	0.00	29.955 
05:05	44.3	44.3	44.3	71	35.5	0	1	270	0.00	29.955 
05:10	44.3	44.3	44.3	72	35.9	0	1	270	0.00	29.955 
05:15	44.2	44.2	44.2	72	35.8	0	1	270	0.00	29.963 
05:20	44.2	44.2	44.2	72	35.8	0	1	270	0.00	29.963 
05:25	44.1	44.1	44.1	73	36.0	0	1	270	0.00	29.963 
05:30	44.1	44.1	44.1	73	36.0	0	1	270	0.00	29.965 
05:35	44.1	44.1	44.1	73	36.0	0	0	---	0.00	29.965 
05:40	43.9	43.9	43.9	73	35.8	0	1	270	0.00	29.965 
05:45	43.9	43.9	43.9	73	35.8	0	1	270	0.00	29.965 
05:50	43.9	43.9	43.9	73	35.8	0	1	270	0.00	29.965 
05:55	43.8	43.8	43.8	73	35.7	0	1	270	0.00	29.965 
06:00	43.8	43.8	43.8	73	35.7	0	3	270	0.00	29.969 
06:05	43.8	43.8	43.8	73	35.7	0	1	270	0.00	29.969 
06:10	43.6	43.6	43.6	74	35.9	0	1	270	0.00	29.969 
06:15	43.5	43.5	43.5	74	35.8	0	0	---	0.00	29.971 
06:20	43.3	43.3	43.3	75	35.9	0	0	---	0.00	29.971 
06:25	43.2	43.2	43.2	75	35.8	0	0	---	0.00	29.971 
06:30	43.1	43.1	43.1	76	36.1	0	0	---	0.00	29.971 
06:35	42.9	42.9	42.9	76	35.9	0	1	270	0.00	29.971 
06:40	42.8	42.8	42.8	77	36.1	0	1	270	0.00	29.971 
06:45	42.8	42.8	42.8	77	36.1	0	1	270	0.00	29.966 
06:50	42.6	42.6	42.6	77	35.9	0	1	270	0.00	29.966 
06:55	42.6	42.6	42.6	77	35.9	0	1	270	0.00	29.966 
07:00	42.6	42.6	42.6	77	35.9	0	1	270	0.00	29.968 
07:05	42.8	42.8	42.8	77	36.1	0	2	270	0.00	29.968 
07:10	42.8	42.8	42.8	77	36.1	0	1	270	0.00	29.968 
07:15	42.6	42.6	42.6	77	35.9	0	1	270	0.00	29.974 
07:20	42.6	42.6	42.6	77	35.9	0	1	270	0.00	29.974 
07:25	42.5	42.5	42.5	77	35.8	0	1	270	0.00	29.974 
07:30	42.5	42.5	42.5	77	35.8	0	1	270	0.00	29.974 
07:35	42.3	42.3	42.3	77	35.6	0	1	270	0.00	29.974 
07:40	42.2	42.2	42.2	78	35.8	0	1	270	0.00	29.974 
07:45	42.2	42.2	42.2	78	35.8	0	1	270	0.00	29.977 
07:50	42.1	42.1	42.1	78	35.7	0	1	270	0.00	29.977 
07:55	42.1	42.1	42.1	78	35.7	0	2	270	0.00	29.977 
08:00	42.1	42.1	42.1	78	35.7	0	3	270	0.00	29.979 
08:05	41.9	41.9	41.9	78	35.5	0	1	270	0.00	29.979 
08:10	41.9	41.9	41.9	78	35.5	0	1	270	0.00	29.979 
08:15	41.8	41.8	41.8	78	35.5	0	2	270	0.00	29.980 
08:20	41.8	41.8	41.8	78	35.5	0	3	270	0.00	29.980 
08:25	41.8	41.8	41.8	78	35.5	0	3	270	0.00	29.980 
08:30	41.6	41.6	41.6	78	35.3	0	2	270	0.00	29.984 
08:35	41.6	41.6	41.6	78	35.3	0	3	270	0.00	29.984 
08:40	41.6	41.6	41.6	78	35.3	0	2	270	0.00	29.984 
08:45	41.6	41.6	41.6	78	35.3	0	2	270	0.00	29.988 
08:50	41.6	41.6	41.6	78	35.3	1	4	270	0.00	29.988 
08:55	41.6	41.6	41.6	78	35.3	0	2	270	0.00	29.988 
09:00	41.6	41.6	41.6	78	35.3	1	4	270	0.00	29.994 
09:05	41.8	41.8	41.8	78	35.5	1	3	270	0.00	29.994 
09:10	41.9	41.9	41.9	78	35.5	0	2	270	0.00	29.994 
09:15	42.1	42.1	42.1	77	35.4	1	5	270	0.00	29.998 
09:20	42.2	42.2	42.2	77	35.5	1	3	292	0.00	29.998 
09:25	42.3	42.3	42.3	77	35.6	1	4	292	0.00	29.998 
09:30	42.5	42.5	42.5	76	35.5	1	3	292	0.00	29.998 
09:35	42.8	42.8	42.8	75	35.4	1	4	292	0.00	29.998 
09:40	43.1	43.1	43.1	75	35.7	1	3	292	0.00	29.998 
09:45	43.2	43.2	43.2	74	35.5	0	3	292	0.00	30.003 
09:50	43.3	43.3	43.3	72	34.9	1	4	292	0.00	30.003 
09:55	43.6	43.6	43.6	72	35.2	0	3	292	0.00	30.003 
10:00	44.1	44.1	44.1	71	35.3	1	4	292	0.00	30.007 
10:05	44.2	44.2	44.2	71	35.4	1	3	292	0.00	30.007 
10:10	44.2	44.2	44.2	70	35.0	0	6	292	0.00	30.007 
10:15	44.3	44.3	44.3	70	35.1	0	2	292	0.00	30.008 
10:20	44.3	44.3	44.3	69	34.8	1	4	248	0.00	30.008 
10:25	44.5	44.5	44.5	69	35.0	1	4	270	0.00	30.008 
10:30	44.8	44.8	44.8	69	35.3	0	2	270	0.00	30.008 
10:35	45.1	45.1	45.1	69	35.5	0	4	270	0.00	30.008 
10:40	45.2	45.2	45.2	68	35.3	1	4	270	0.00	30.008 
10:45	45.5	45.5	45.5	66	34.8	1	4	270	0.00	30.010 
10:50	45.8	45.8	45.8	66	35.1	1	3	248	0.00	30.010 
10:55	46.1	46.1	46.1	65	35.0	1	4	248	0.00	30.010 
11:00	46.1	46.1	46.1	64	34.6	2	7	270	0.00	30.012 
11:05	46.1	46.1	46.1	65	35.0	2	6	270	0.00	30.012 
11:10	46.4	46.4	46.4	65	35.3	1	4	270	0.00	30.012 
11:15	46.4	46.4	46.4	64	34.9	1	4	270	0.00	30.014 
11:20	46.4	46.4	46.4	64	34.9	2	4	270	0.00	30.014 
11:25	46.2	46.2	46.2	65	35.1	1	3	270	0.00	30.014 
11:30	46.2	46.2	46.2	65	35.1	1	2	270	0.00	30.017 
11:35	46.2	46.2	46.2	65	35.1	2	6	270	0.00	30.017 
11:40	46.2	46.2	46.2	65	35.1	1	2	270	0.00	30.017 
11:45	46.2	46.2	46.2	65	35.1	1	4	270	0.00	30.022 
11:50	46.1	46.1	46.1	65	35.0	2	5	270	0.00	30.022 
11:55	46.1	46.1	46.1	65	35.0	1	5	248	0.00	30.022 
12:00	46.1	46.1	46.1	66	35.4	1	5	292	0.00	30.026 
12:05	46.1	46.1	46.1	65	35.0	1	4	270	0.00	30.026 
12:10	46.0	46.0	46.0	66	35.3	1	4	292	0.00	30.026 
12:15	46.0	46.0	46.0	66	35.3	1	4	270	0.00	30.028 
12:20	46.0	46.0	46.0	66	35.3	1	4	270	0.00	30.028 
12:25	46.0	46.0	46.0	66	35.3	1	3	248	0.00	30.028 
12:30	46.1	46.1	46.1	66	35.4	0	2	248	0.00	30.027 
12:35	46.2	46.2	46.2	67	35.9	1	4	248	0.00	30.027 
12:40	46.4	46.4	46.4	66	35.7	1	4	248	0.00	30.027 
12:45	46.4	46.4	46.4	66	35.7	2	6	292	0.00	30.028 
12:50	46.5	46.5	46.5	65	35.4	1	4	292	0.00	30.028 
12:55	46.7	46.7	46.7	66	36.0	1	5	292	0.00	30.028 
13:00	46.7	46.7	46.7	64	35.2	2	7	292	0.00	30.028 
13:05	46.8	46.8	46.8	64	35.3	2	4	292	0.00	30.028 
13:10	46.8	46.8	46.8	64	35.3	2	5	292	0.00	30.028 
13:15	47.0	47.0	47.0	64	35.5	1	5	270	0.00	30.027 
13:20	47.1	47.1	47.1	64	35.6	1	3	270	0.00	30.027 
13:25	47.1	47.1	47.1	63	35.2	1	4	270	0.00	30.027 
13:30	47.1	47.1	47.1	62	34.8	2	5	270	0.00	30.028 
13:35	47.0	47.0	47.0	62	34.7	2	5	270	0.00	30.028 
13:40	46.8	46.8	46.8	62	34.5	2	4	270	0.00	30.028 
13:45	46.8	46.8	46.8	62	34.5	2	5	270	0.00	30.027 
13:50	47.0	47.0	47.0	62	34.7	1	4	270	0.00	30.027 
13:55	47.0	47.0	47.0	62	34.7	1	5	270	0.00	30.027 
14:00	47.1	47.1	47.1	62	34.8	1	5	270	0.00	30.027 
14:05	47.1	47.1	47.1	61	34.4	2	9	270	0.00	30.027 
14:10	47.0	47.0	47.0	61	34.3	2	6	338	0.00	30.027 
14:15	47.0	47.0	47.0	61	34.3	3	5	292	0.00	30.026 
14:20	46.8	46.8	46.8	61	34.1	3	8	315	0.00	30.026 
14:25	46.8	46.8	46.8	61	34.1	3	7	270	0.00	30.026 
14:30	46.8	46.8	46.8	61	34.1	3	7	292	0.00	30.028 
14:35	46.8	46.8	46.8	60	33.7	3	6	270	0.00	30.028 
14:40	46.7	46.7	46.7	60	33.6	3	6	292	0.00	30.028 
14:45	46.7	46.7	46.7	61	34.0	2	5	270	0.00	30.028 
14:50	46.7	46.7	46.7	62	34.4	1	5	270	0.00	30.028 
14:55	46.7	46.7	46.7	61	34.0	3	6	270	0.00	30.028 
15:00	46.5	46.5	46.5	61	33.8	3	7	292	0.00	30.029 
15:05	46.5	46.5	46.5	60	33.4	3	7	270	0.00	30.029 
15:10	46.4	46.4	46.4	61	33.7	2	5	292	0.00	30.029 
15:15	46.4	46.4	46.4	61	33.7	2	6	315	0.00	30.037 
15:20	46.4	46.4	46.4	61	33.7	1	4	270	0.00	30.037 
15:25	46.4	46.4	46.4	62	34.1	1	3	315	0.00	30.037 
15:30	46.2	46.2	46.2	61	33.5	3	6	292	0.00	30.043 
15:35	46.2	46.2	46.2	61	33.5	2	4	292	0.00	30.043 
15:40	46.1	46.1	46.1	61	33.4	1	4	270	0.00	30.043 
15:45	46.1	46.1	46.1	61	33.4	2	5	270	0.00	30.046 
15:50	46.0	46.0	46.0	61	33.3	2	5	270	0.00	30.046 
15:55	46.1	46.1	46.1	62	33.8	1	3	292	0.00	30.046 
16:00	46.0	46.0	46.0	61	33.3	2	6	292	0.00	30.047 
16:05	46.0	46.0	46.0	62	33.7	2	5	270	0.00	30.047 
16:10	46.0	46.0	46.0	62	33.7	1	3	270	0.00	30.047 
16:15	46.0	46.0	46.0	62	33.7	1	4	270	0.00	30.049 
16:20	46.0	46.0	46.0	62	33.7	1	5	270	0.00	30.049 
16:25	46.0	46.0	46.0	62	33.7	2	5	270	0.00	30.049 
16:30	46.1	46.1	46.1	63	34.2	2	6	270	0.00	30.051 
16:35	46.1	46.1	46.1	62	33.8	1	3	270	0.00	30.051 
16:40	46.2	46.2	46.2	63	34.3	1	4	292	0.00	30.051 
16:45	46.2	46.2	46.2	63	34.3	1	4	292	0.00	30.058 
16:50	46.1	46.1	46.1	62	33.8	2	5	315	0.00	30.058 
16:55	46.1	46.1	46.1	62	33.8	1	3	292	0.00	30.058 
17:00	46.1	46.1	46.1	62	33.8	1	4	292	0.00	30.058 
17:05	46.0	46.0	46.0	62	33.7	2	5	270	0.00	30.058 
17:10	46.0	46.0	46.0	62	33.7	1	4	270	0.00	30.058 
17:15	46.1	46.1	46.1	63	34.2	0	1	270	0.00	30.058 
17:20	46.1	46.1	46.1	63	34.2	0	2	270	0.00	30.058 
17:25	46.1	46.1	46.1	62	33.8	1	4	270	0.00	30.058 
17:30	46.0	46.0	46.0	62	33.7	2	4	292	0.00	30.062 
17:35	46.1	46.1	46.1	63	34.2	1	3	292	0.00	30.062 
17:40	46.1	46.1	46.1	62	33.8	1	7	292	0.00	30.062 
17:45	46.0	46.0	46.0	62	33.7	1	5	292	0.00	30.063 
17:50	46.0	46.0	46.0	62	33.7	1	5	315	0.00	30.063 
17:55	46.0	46.0	46.0	62	33.7	1	3	292	0.00	30.063 
18:00	46.0	46.0	46.0	62	33.7	1	4	270	0.00	30.064 
18:05	45.8	45.8	45.8	62	33.5	1	5	270	0.00	30.064 
18:10	45.8	45.8	45.8	62	33.5	1	4	270	0.00	30.064 
18:15	45.8	45.8	45.8	62	33.5	2	6	270	0.00	30.072 
18:20	45.8	45.8	45.8	62	33.5	2	5	270	0.00	30.072 
18:25	45.8	45.8	45.8	63	33.9	1	4	270	0.00	30.072 
18:30	45.7	45.7	45.7	63	33.8	2	6	270	0.00	30.080 
18:35	45.5	45.5	45.5	64	34.0	1	4	292	0.00	30.080 
18:40	45.4	45.4	45.4	64	33.9	0	2	292	0.00	30.080 
18:45	45.2	45.2	45.2	64	33.8	1	7	315	0.00	30.083 
18:50	45.2	45.2	45.2	65	34.1	1	4	315	0.00	30.083 
18:55	45.1	45.1	45.1	65	34.0	1	4	270	0.00	30.083 
19:00	45.1	45.1	45.1	65	34.0	0	4	292	0.00	30.091 
19:05	44.9	44.9	44.9	66	34.2	0	1	292	0.00	30.091 
19:10	44.9	44.9	44.9	66	34.2	0	1	292	0.00	30.091 
19:15	44.8	44.8	44.8	66	34.1	0	1	292	0.00	30.097 
19:20	44.8	44.8	44.8	67	34.5	0	1	292	0.00	30.097 
19:25	44.8	44.8	44.8	67	34.5	0	1	292	0.00	30.097 
19:30	44.8	44.8	44.8	67	34.5	0	1	292	0.00	30.101 
19:35	44.6	44.6	44.6	67	34.3	0	3	292	0.00	30.101 
19:40	44.6	44.6	44.6	67	34.3	1	5	292	0.00	30.101 
19:45	44.6	44.6	44.6	67	34.3	0	2	292	0.00	30.108 
19:50	44.6	44.6	44.6	68	34.7	0	1	292	0.00	30.108 
19:55	44.6	44.6	44.6	68	34.7	1	3	292	0.00	30.108 
20:00	44.5	44.5	44.5	68	34.6	0	2	315	0.00	30.112 
20:05	44.3	44.3	44.3	70	35.1	0	3	315	0.00	30.112 
20:10	44.2	44.2	44.2	71	35.4	0	1	315	0.00	30.112 
20:15	44.1	44.1	44.1	72	35.7	0	1	315	0.00	30.112 
20:20	43.9	43.9	43.9	73	35.8	0	1	315	0.00	30.112 
20:25	43.8	43.8	43.8	73	35.7	0	1	315	0.00	30.112 
20:30	43.8	43.8	43.8	73	35.7	0	1	315	0.00	30.111 
20:35	43.8	43.8	43.8	73	35.7	0	1	315	0.00	30.111 
20:40	43.6	43.6	43.6	73	35.5	0	1	315	0.00	30.111 
20:45	43.6	43.6	43.6	73	35.5	0	1	315	0.00	30.111 
20:50	43.6	43.6	43.6	73	35.5	0	1	315	0.00	30.111 
20:55	43.6	43.6	43.6	73	35.5	0	2	315	0.00	30.111 
21:00	43.6	43.6	43.6	72	35.2	0	1	315	0.00	30.112 
21:05	43.6	43.6	43.6	72	35.2	0	1	315	0.00	30.112 
21:10	43.6	43.6	43.6	72	35.2	0	1	315	0.00	30.112 
21:15	43.6	43.6	43.6	72	35.2	0	1	315	0.00	30.110 
21:20	43.6	43.6	43.6	72	35.2	0	1	315	0.00	30.110 
21:25	43.6	43.6	43.6	72	35.2	0	1	315	0.00	30.110 
21:30	43.6	43.6	43.6	72	35.2	0	1	315	0.00	30.111 
21:35	43.6	43.6	43.6	72	35.2	0	2	315	0.00	30.111 
21:40	43.8	43.8	43.8	72	35.4	0	1	315	0.00	30.111 
21:45	43.8	43.8	43.8	72	35.4	0	1	315	0.00	30.112 
21:50	43.8	43.8	43.8	72	35.4	0	1	315	0.00	30.112 
21:55	43.6	43.6	43.6	72	35.2	0	1	315	0.00	30.112 
22:00	43.6	43.6	43.6	72	35.2	0	1	315	0.00	30.112 
22:05	43.6	43.6	43.6	72	35.2	0	1	315	0.00	30.112 
22:10	43.6	43.6	43.6	72	35.2	0	2	315	0.00	30.112 
22:15	43.6	43.6	43.6	72	35.2	0	1	315	0.00	30.109 
22:20	43.6	43.6	43.6	72	35.2	0	1	315	0.00	30.109 
22:25	43.6	43.6	43.6	72	35.2	0	1	315	0.00	30.109 
22:30	43.6	43.6	43.6	72	35.2	0	1	315	0.00	30.110 
22:35	43.6	43.6	43.6	71	34.8	0	2	315	0.00	30.110 
22:40	43.6	43.6	43.6	71	34.8	0	2	315	0.00	30.110 
22:45	43.8	43.8	43.8	71	35.0	0	1	315	0.00	30.109 
22:50	43.8	43.8	43.8	71	35.0	0	2	315	0.00	30.109 
22:55	43.8	43.8	43.8	71	35.0	0	1	315	0.00	30.109 
23:00	43.8	43.8	43.8	71	35.0	0	2	315	0.00	30.111 
23:05	43.8	43.8	43.8	70	34.7	0	2	315	0.00	30.111 
23:10	43.8	43.8	43.8	70	34.7	0	1	315	0.00	30.111 
23:15	43.8	43.8	43.8	71	35.0	0	1	315	0.00	30.113 
23:20	43.8	43.8	43.8	70	34.7	0	1	315	0.00	30.113 
23:25	43.8	43.8	43.8	71	35.0	0	1	315	0.00	30.113 
23:30	43.8	43.8	43.8	71	35.0	0	1	315	0.00	30.114 
23:35	43.8	43.8	43.8	70	34.7	0	1	315	0.00	30.114 
23:40	43.8	43.8	43.8	71	35.0	0	1	315	0.00	30.114 
23:45	43.8	43.8	43.8	71	35.0	0	1	315	0.00	30.112 
23:50	43.8	43.8	43.8	71	35.0	0	1	315	0.00	30.112 
23:55	43.8	43.8	43.8	71	35.0	0	0	---	0.00	30.112 

CoCoRaHS
IN-AL-39
A2 Web Hosting
Creative Commons License
GoDaddy
search engine by freefind advanced

loaded 2018-11-13 02:33:34 • last modified 2010-11-18 10:43:29
Privacy PolicyDisclaimer
• wx.awcolley.com is powered by PmWiki v.2002016 •
• all content (unless otherwise noted) © 2018 A W Colley